Time;durP1;ratioP1;P1;durP2;ratioP2;P2;SDS_P1;SDS_P2;PMS_P1;PMS_P2;Temp;Humidity;BMP_temperature;BMP_pressure;BME280_temperature;BME280_humidity;BME280_pressure;Samples;Min_cycle;Max_cycle;Signal;HPM_P1;HPM_P2
2021/10/02 00:02:19;;;;;;;4.17;3.53;;;;;;;15.23;60.90;100866.75;5059080;28;20444;-68
2021/10/02 00:35:20;;;;;;;4.03;3.73;;;;;;;15.01;62.86;100859.03;4997772;28;20425;-68
2021/10/02 00:46:02;;;;;;;4.33;3.93;;;;;;;15.12;61.56;100856.34;5058318;28;20484;-68
2021/10/02 00:48:28;;;;;;;4.30;3.70;;;;;;;15.25;61.85;100849.22;5058211;28;20391;-68
2021/10/02 00:50:58;;;;;;;4.30;3.90;;;;;;;15.25;61.02;100855.38;5033547;28;20466;-68
2021/10/02 00:53:23;;;;;;;4.10;3.70;;;;;;;15.02;62.45;100857.28;5018748;28;20442;-68
2021/10/02 00:55:50;;;;;;;4.10;3.70;;;;;;;15.05;62.20;100860.75;5018454;28;20397;-68
2021/10/02 00:58:16;;;;;;;6.10;3.60;;;;;;;15.07;62.27;100856.38;5018537;28;20175;-69
2021/10/02 01:00:42;;;;;;;6.97;3.90;;;;;;;15.20;62.19;100854.53;5018542;28;20449;-68
2021/10/02 01:03:35;;;;;;;5.30;3.97;;;;;;;14.85;62.65;100855.63;5017739;28;20413;-70
2021/10/02 01:06:23;;;;;;;4.70;4.30;;;;;;;15.20;61.69;100845.78;5017789;28;20446;-69
2021/10/02 01:09:03;;;;;;;3.80;3.50;;;;;;;15.37;61.97;100843.91;5017624;28;20794;-68
2021/10/02 01:11:35;;;;;;;3.80;3.50;;;;;;;15.03;62.40;100852.00;5018227;28;20475;-68
2021/10/02 01:14:26;;;;;;;4.23;3.70;;;;;;;15.09;62.01;100844.09;5018083;28;20469;-68
2021/10/02 01:16:55;;;;;;;4.57;4.17;;;;;;;15.10;61.94;100845.84;5010222;28;20647;-69
2021/10/02 01:19:27;;;;;;;4.67;3.63;;;;;;;14.83;62.27;100839.03;5017584;28;20481;-68
2021/10/02 01:22:18;;;;;;;4.63;3.87;;;;;;;15.39;61.72;100842.09;5018017;28;20414;-69
2021/10/02 01:25:10;;;;;;;7.53;4.40;;;;;;;14.96;62.52;100845.06;5018217;28;20426;-69
2021/10/02 01:27:59;;;;;;;4.03;3.60;;;;;;;15.09;62.16;100840.63;5017585;28;20400;-68
2021/10/02 01:36:23;;;;;;;4.60;4.20;;;;;;;14.70;63.99;100840.84;5018255;28;20404;-69
2021/10/02 01:47:12;;;;;;;5.17;4.67;;;;;;;15.03;64.60;100823.13;5017997;28;20451;-68
2021/10/02 01:49:46;;;;;;;5.33;4.83;;;;;;;14.80;66.18;100820.66;5017985;28;20861;-68
2021/10/02 01:52:13;;;;;;;6.60;5.50;;;;;;;14.92;66.23;100820.56;5016816;28;20535;-69
2021/10/02 01:54:41;;;;;;;6.23;5.33;;;;;;;15.03;66.19;100833.63;5021445;28;20396;-68
2021/10/02 01:57:07;;;;;;;7.60;5.40;;;;;;;15.13;66.02;100827.44;5021669;28;20422;-69
2021/10/02 01:59:33;;;;;;;6.67;5.37;;;;;;;15.25;66.05;100823.84;5020850;28;20419;-69
2021/10/02 02:01:59;;;;;;;6.00;5.23;;;;;;;15.33;65.96;100826.41;5021217;28;20431;-69
2021/10/02 02:04:25;;;;;;;5.83;5.33;;;;;;;15.15;66.94;100828.31;5020714;28;20403;-69
2021/10/02 02:06:52;;;;;;;6.40;5.70;;;;;;;15.20;67.28;100816.91;5020786;28;20217;-69
2021/10/02 02:09:18;;;;;;;7.47;5.67;;;;;;;15.05;68.02;100823.13;5021299;28;20449;-68
2021/10/02 02:11:44;;;;;;;7.70;5.30;;;;;;;14.67;69.57;100834.75;5020478;28;20469;-68
2021/10/02 02:14:12;;;;;;;9.57;6.47;;;;;;;14.69;69.84;100819.88;5021183;28;20422;-68
2021/10/02 02:16:38;;;;;;;7.13;6.30;;;;;;;14.89;69.21;100817.13;5021807;28;20473;-68
2021/10/02 02:19:03;;;;;;;6.63;5.93;;;;;;;14.62;69.68;100819.88;5021282;28;20414;-68
2021/10/02 02:21:29;;;;;;;6.67;6.07;;;;;;;14.71;70.13;100816.38;5021059;28;20789;-68
2021/10/02 02:23:56;;;;;;;6.70;5.87;;;;;;;14.93;69.30;100821.47;5021874;28;20253;-68
2021/10/02 02:26:21;;;;;;;6.80;6.17;;;;;;;15.05;69.30;100815.25;5021116;28;20170;-68
2021/10/02 02:28:47;;;;;;;7.80;5.93;;;;;;;15.03;69.43;100817.00;5021094;28;20820;-68
2021/10/02 02:31:12;;;;;;;8.60;6.40;;;;;;;14.89;68.97;100817.13;5020477;28;20175;-69
2021/10/02 02:33:39;;;;;;;9.50;6.47;;;;;;;14.93;69.63;100816.22;5020963;28;20568;-69
2021/10/02 02:36:05;;;;;;;7.90;6.50;;;;;;;14.72;70.32;100820.75;5020979;28;20171;-68
2021/10/02 02:38:31;;;;;;;7.50;6.80;;;;;;;14.77;70.42;100816.31;5021397;28;20766;-68
2021/10/02 02:40:56;;;;;;;7.73;6.07;;;;;;;14.75;71.46;100807.59;5020807;28;20433;-68
2021/10/02 02:43:22;;;;;;;6.83;6.03;;;;;;;14.87;70.30;100816.25;5020872;28;20395;-68
2021/10/02 02:46:02;;;;;;;7.90;7.10;;;;;;;14.69;70.69;100812.84;5021241;28;20440;-68
2021/10/02 02:48:32;;;;;;;15.13;7.10;;;;;;;14.57;70.29;100802.41;5020826;28;20266;-68
2021/10/02 02:51:05;;;;;;;7.33;6.57;;;;;;;14.57;70.94;100807.66;5019731;28;20462;-68
2021/10/02 02:53:52;;;;;;;7.37;6.60;;;;;;;14.70;70.56;100812.00;5019706;28;20511;-68
2021/10/02 02:56:21;;;;;;;8.17;6.70;;;;;;;14.82;70.40;100819.78;5020475;28;20412;-70
2021/10/02 02:58:51;;;;;;;8.60;7.70;;;;;;;15.09;69.51;100812.59;5020467;28;20388;-69
2021/10/02 03:01:20;;;;;;;9.40;6.97;;;;;;;15.09;69.76;100812.59;5020322;28;20491;-68
2021/10/02 03:03:45;;;;;;;8.13;7.10;;;;;;;15.00;70.10;100810.03;5002996;28;20750;-69
2021/10/02 03:06:12;;;;;;;9.77;7.30;;;;;;;14.73;70.48;100808.47;5019883;28;20399;-68
2021/10/02 03:08:38;;;;;;;8.93;7.70;;;;;;;14.86;69.91;100802.25;5020706;28;20202;-69
2021/10/02 03:11:04;;;;;;;8.00;7.20;;;;;;;14.89;70.37;100804.00;5019427;28;20440;-68
2021/10/02 03:13:34;;;;;;;12.23;7.83;;;;;;;14.90;70.29;100803.13;5019519;28;20927;-68
2021/10/02 03:16:02;;;;;;;8.13;7.07;;;;;;;14.75;70.23;100801.47;5020794;28;20258;-68
2021/10/02 03:18:28;;;;;;;10.70;8.30;;;;;;;15.10;69.49;100803.84;5020212;28;20434;-68
2021/10/02 03:20:55;;;;;;;12.53;9.10;;;;;;;14.96;69.80;100800.44;5019888;28;20479;-69
2021/10/02 03:23:23;;;;;;;11.77;7.70;;;;;;;14.86;70.27;100809.28;5019789;28;20441;-68
2021/10/02 03:25:49;;;;;;;10.03;7.53;;;;;;;15.01;69.81;100800.41;5019948;28;20817;-68
2021/10/02 03:28:15;;;;;;;10.67;7.97;;;;;;;15.10;69.49;100806.47;5020034;28;20399;-68
2021/10/02 03:30:40;;;;;;;8.80;7.90;;;;;;;14.79;70.69;100804.06;5019496;28;20186;-68
2021/10/02 03:33:06;;;;;;;10.40;7.87;;;;;;;14.96;69.50;100800.44;5019083;28;20584;-68
2021/10/02 03:35:31;;;;;;;9.10;8.20;;;;;;;15.03;69.88;100799.50;5019737;28;20178;-69
2021/10/02 03:37:57;;;;;;;9.03;7.83;;;;;;;14.64;71.25;100804.16;5019562;28;20174;-68
2021/10/02 03:40:23;;;;;;;8.57;7.77;;;;;;;15.05;69.75;100795.13;5019634;28;20274;-68
2021/10/02 03:42:51;;;;;;;9.70;8.30;;;;;;;14.74;70.23;100805.84;5019637;28;20214;-68
2021/10/02 03:45:18;;;;;;;9.87;8.97;;;;;;;14.79;70.89;100804.06;5019926;28;20670;-68
2021/10/02 03:47:43;;;;;;;9.97;7.57;;;;;;;15.15;69.23;100799.44;5019604;28;20397;-68
2021/10/02 03:50:09;;;;;;;8.43;7.63;;;;;;;15.13;69.39;100788.03;5019336;28;20677;-69
2021/10/02 03:52:35;;;;;;;7.60;6.90;;;;;;;14.72;70.90;100786.63;5054793;28;20236;-68
2021/10/02 03:55:01;;;;;;;10.27;7.33;;;;;;;14.75;70.08;100776.09;5059212;28;20402;-68
2021/10/02 03:57:26;;;;;;;8.30;7.43;;;;;;;15.14;68.97;100774.03;5059378;28;20311;-68
2021/10/02 03:59:52;;;;;;;8.27;7.30;;;;;;;14.65;70.07;100764.81;5058797;28;20440;-68
2021/10/02 04:02:17;;;;;;;10.00;7.97;;;;;;;14.84;69.58;100775.16;5059764;28;20173;-68
2021/10/02 04:04:42;;;;;;;10.63;8.03;;;;;;;15.13;68.88;100779.31;5059518;28;20273;-68
2021/10/02 04:07:08;;;;;;;10.77;9.67;;;;;;;15.20;68.84;100777.50;5058827;28;20252;-68
2021/10/02 04:09:33;;;;;;;12.63;8.80;;;;;;;15.08;69.33;100773.22;5058787;28;20177;-69
2021/10/02 04:11:58;;;;;;;12.57;9.03;;;;;;;14.88;69.65;100768.13;5059076;28;20176;-68
2021/10/02 04:14:24;;;;;;;9.60;8.30;;;;;;;14.74;70.13;100778.72;5059745;28;20216;-69
2021/10/02 04:16:49;;;;;;;8.50;7.67;;;;;;;14.84;69.44;100775.16;5061202;28;20448;-69
2021/10/02 04:19:15;;;;;;;8.97;7.87;;;;;;;14.62;70.21;100785.75;5062084;28;20161;-69
2021/10/02 04:21:40;;;;;;;8.77;7.70;;;;;;;14.88;69.51;100784.72;5060639;28;20173;-69
2021/10/02 04:24:06;;;;;;;9.93;7.67;;;;;;;14.88;69.85;100776.00;5060985;28;20177;-69
2021/10/02 04:26:31;;;;;;;9.13;8.23;;;;;;;14.64;70.13;100772.69;5062551;28;20174;-68
2021/10/02 04:28:56;;;;;;;10.30;9.07;;;;;;;14.91;69.17;100770.72;5060133;28;20224;-69
2021/10/02 04:31:22;;;;;;;10.40;8.73;;;;;;;14.86;69.41;100768.16;5058536;28;20162;-68
2021/10/02 04:33:47;;;;;;;9.30;8.40;;;;;;;14.59;70.84;100775.28;5059064;28;20201;-69
2021/10/02 04:36:13;;;;;;;9.60;8.70;;;;;;;14.99;69.20;100769.78;5058524;28;20416;-68
2021/10/02 04:38:38;;;;;;;8.33;7.53;;;;;;;14.99;69.12;100774.16;5058340;28;20215;-69
2021/10/02 04:41:04;;;;;;;9.90;8.83;;;;;;;14.82;69.97;100777.78;5059095;28;20454;-68
2021/10/02 04:43:33;;;;;;;11.23;9.60;;;;;;;14.90;69.58;100775.13;5058610;28;20557;-68
2021/10/02 04:45:59;;;;;;;10.67;8.80;;;;;;;14.67;70.80;100787.50;5058472;28;20538;-69
2021/10/02 04:48:24;;;;;;;9.50;8.50;;;;;;;14.53;71.20;100782.31;5058819;28;20756;-68
2021/10/02 04:50:50;;;;;;;15.23;10.17;;;;;;;14.75;70.89;100781.34;5057980;28;20482;-68
2021/10/02 04:53:15;;;;;;;9.70;8.70;;;;;;;14.69;70.22;100791.88;5058176;28;20213;-69
2021/10/02 04:55:42;;;;;;;9.60;8.67;;;;;;;14.87;70.01;100779.50;5058714;28;20231;-68
2021/10/02 04:58:07;;;;;;;10.07;8.50;;;;;;;14.74;70.40;100781.34;5058205;28;20178;-69
2021/10/02 05:00:32;;;;;;;11.50;9.00;;;;;;;14.64;70.81;100783.19;5057884;28;20414;-68
2021/10/02 05:03:00;;;;;;;10.07;9.10;;;;;;;14.67;70.49;100772.66;5058692;28;20189;-70
2021/10/02 05:05:25;;;;;;;10.30;9.30;;;;;;;14.74;70.95;100771.72;5058177;28;20539;-68
2021/10/02 05:07:51;;;;;;;9.57;8.57;;;;;;;14.76;70.97;100775.22;5058221;28;20518;-68
2021/10/02 05:10:16;;;;;;;14.07;9.13;;;;;;;14.58;71.64;100777.94;5058364;28;20523;-68
2021/10/02 05:12:41;;;;;;;11.80;8.97;;;;;;;14.10;73.76;100780.81;5057828;28;20213;-69
2021/10/02 05:15:07;;;;;;;9.57;8.60;;;;;;;14.65;72.29;100783.16;5058185;28;20181;-68
2021/10/02 05:17:32;;;;;;;11.97;9.47;;;;;;;14.39;72.86;100780.66;5058151;28;20185;-68
2021/10/02 05:19:57;;;;;;;10.37;9.30;;;;;;;14.46;73.29;100778.88;5057807;28;20181;-68
2021/10/02 05:22:23;;;;;;;13.57;10.00;;;;;;;14.36;74.05;100778.06;5058267;28;20175;-68
2021/10/02 05:24:48;;;;;;;10.30;9.30;;;;;;;14.41;73.44;100780.63;5058458;28;20174;-71
2021/10/02 05:27:13;;;;;;;13.30;10.00;;;;;;;14.21;74.69;100788.63;5059403;28;20181;-69
2021/10/02 05:29:40;;;;;;;11.07;9.60;;;;;;;14.30;74.21;100791.19;5062087;28;20196;-68
2021/10/02 05:32:07;;;;;;;11.67;10.33;;;;;;;14.08;75.37;100803.53;5062627;28;20173;-69
2021/10/02 05:34:33;;;;;;;14.53;10.27;;;;;;;14.20;75.34;100800.00;5061609;28;20546;-68
2021/10/02 05:36:58;;;;;;;12.27;10.20;;;;;;;14.11;75.12;100793.91;5061691;28;20495;-67
2021/10/02 05:39:23;;;;;;;10.97;9.87;;;;;;;14.28;75.02;100806.06;5062508;28;20248;-69
2021/10/02 05:41:50;;;;;;;12.20;10.67;;;;;;;14.66;74.07;100799.78;5061507;28;20182;-69
2021/10/02 05:44:15;;;;;;;14.30;10.60;;;;;;;14.45;74.55;100805.97;5061699;28;20515;-68
2021/10/02 05:46:40;;;;;;;11.43;9.33;;;;;;;14.52;74.27;100806.81;5062030;28;20532;-69
2021/10/02 05:49:06;;;;;;;11.97;9.67;;;;;;;14.47;74.65;100799.84;5061565;28;20251;-68
2021/10/02 05:51:32;;;;;;;12.63;9.90;;;;;;;14.30;75.10;100812.16;5061027;28;20228;-69
2021/10/02 05:53:57;;;;;;;15.77;10.17;;;;;;;14.51;74.65;100803.31;5061788;28;20201;-68
2021/10/02 05:56:24;;;;;;;12.80;10.57;;;;;;;14.24;75.22;100804.34;5061285;28;20402;-68
2021/10/02 05:58:53;;;;;;;13.53;10.17;;;;;;;14.27;75.56;100809.56;5061306;28;20470;-68
2021/10/02 06:01:19;;;;;;;13.40;10.03;;;;;;;14.71;73.80;100810.22;5061415;28;20428;-69
2021/10/02 06:03:45;;;;;;;12.40;9.80;;;;;;;14.42;74.13;100808.63;5044001;28;20736;-70
2021/10/02 06:06:11;;;;;;;10.40;9.20;;;;;;;14.64;73.61;100812.91;5061018;28;20771;-69
2021/10/02 06:08:36;;;;;;;10.73;9.43;;;;;;;14.39;74.93;100804.25;5061795;28;20429;-68
2021/10/02 06:11:02;;;;;;;12.43;10.27;;;;;;;14.66;74.13;100802.41;5061008;28;20504;-68
2021/10/02 06:13:27;;;;;;;12.10;10.47;;;;;;;14.59;74.03;100800.66;5061324;28;20252;-69
2021/10/02 06:15:52;;;;;;;12.10;10.07;;;;;;;14.70;73.62;100798.88;5061537;28;20178;-70
2021/10/02 06:18:18;;;;;;;14.03;10.20;;;;;;;14.59;74.18;100800.66;5060702;28;20458;-69
2021/10/02 06:20:43;;;;;;;10.73;8.87;;;;;;;14.52;74.86;100804.19;5061728;28;20227;-68
2021/10/02 06:23:08;;;;;;;14.10;10.00;;;;;;;14.78;73.97;100797.06;5061523;28;20212;-68
2021/10/02 06:25:34;;;;;;;14.87;9.80;;;;;;;14.39;75.34;100808.63;5060754;28;20178;-70
2021/10/02 06:27:59;;;;;;;16.63;11.63;;;;;;;14.70;74.15;100805.88;5060734;28;20177;-69
2021/10/02 06:30:25;;;;;;;14.30;9.90;;;;;;;14.63;74.33;100813.78;5061162;28;20173;-69
2021/10/02 06:32:50;;;;;;;12.97;10.70;;;;;;;14.53;74.92;100808.56;5060562;28;20201;-69
2021/10/02 06:35:15;;;;;;;12.13;9.63;;;;;;;14.67;74.30;100809.38;5060419;28;20184;-68
2021/10/02 06:37:43;;;;;;;17.83;9.60;;;;;;;14.73;73.91;100811.97;5061033;28;20264;-69
2021/10/02 06:40:08;;;;;;;13.03;10.20;;;;;;;14.64;74.44;100822.53;5059620;28;20169;-69
2021/10/02 06:42:34;;;;;;;11.50;10.03;;;;;;;14.32;75.58;100823.53;5060561;28;20413;-68
2021/10/02 06:44:59;;;;;;;16.77;11.07;;;;;;;14.70;74.96;100814.63;5060863;28;20539;-68
2021/10/02 06:47:25;;;;;;;14.00;11.07;;;;;;;14.57;74.74;100829.53;5060380;28;20188;-69
2021/10/02 06:49:53;;;;;;;15.73;11.80;;;;;;;14.41;75.82;100843.59;5060047;28;20169;-68
2021/10/02 06:52:18;;;;;;;13.80;10.50;;;;;;;14.42;75.79;100835.75;5060184;28;20218;-69
2021/10/02 06:54:44;;;;;;;14.87;10.90;;;;;;;14.53;75.55;100834.78;5060608;28;20420;-68
2021/10/02 06:57:12;;;;;;;13.70;11.40;;;;;;;14.12;76.74;100834.97;5060629;28;20173;-69
2021/10/02 06:59:37;;;;;;;13.63;11.73;;;;;;;14.39;76.11;100833.09;5043411;28;20189;-68
2021/10/02 07:02:03;;;;;;;15.00;10.93;;;;;;;14.79;74.49;100834.69;5063590;28;20413;-68
2021/10/02 07:04:28;;;;;;;14.50;11.17;;;;;;;14.63;75.29;100829.50;5062299;28;20240;-69
2021/10/02 07:06:53;;;;;;;12.27;10.90;;;;;;;14.47;75.55;100827.84;5059883;28;20173;-68
2021/10/02 07:09:18;;;;;;;14.20;11.50;;;;;;;14.44;75.95;100825.22;5059938;28;20178;-69
2021/10/02 07:11:44;;;;;;;14.47;11.70;;;;;;;14.59;75.22;100829.53;5060320;28;20174;-69
2021/10/02 07:14:09;;;;;;;12.30;11.10;;;;;;;14.80;74.36;100826.81;5059816;28;20210;-68
2021/10/02 07:16:36;;;;;;;13.13;11.73;;;;;;;14.71;74.99;100826.84;5042345;28;20174;-68
2021/10/02 07:19:02;;;;;;;12.70;11.40;;;;;;;14.90;74.50;100817.09;5059935;28;20470;-68
2021/10/02 07:21:27;;;;;;;15.47;10.60;;;;;;;14.75;75.06;100819.84;5059673;28;20423;-69
2021/10/02 07:23:52;;;;;;;12.77;11.00;;;;;;;14.89;74.10;100830.25;5059732;28;20204;-68
2021/10/02 07:26:18;;;;;;;13.50;11.03;;;;;;;14.82;74.20;100834.66;5060170;28;20174;-70
2021/10/02 07:28:43;;;;;;;12.07;10.80;;;;;;;14.77;74.55;100832.06;5059689;28;20193;-68
2021/10/02 07:31:08;;;;;;;13.73;12.33;;;;;;;14.95;74.04;100828.44;5059496;28;20169;-70
2021/10/02 07:33:34;;;;;;;13.40;11.50;;;;;;;14.35;76.17;100841.88;5059964;28;20197;-69
2021/10/02 07:35:59;;;;;;;17.00;11.63;;;;;;;14.57;75.30;100829.53;5059419;28;20177;-69
2021/10/02 07:38:25;;;;;;;15.10;12.07;;;;;;;14.91;74.84;100824.09;5042084;28;20173;-69
2021/10/02 07:40:51;;;;;;;15.73;12.00;;;;;;;15.22;73.44;100821.25;5059680;28;20165;-69
2021/10/02 07:43:16;;;;;;;17.33;11.87;;;;;;;15.02;74.43;100821.41;5059301;28;20534;-69
2021/10/02 07:45:44;;;;;;;17.63;12.80;;;;;;;15.36;72.80;100818.50;5059564;28;20523;-69
2021/10/02 07:48:10;;;;;;;13.40;12.10;;;;;;;15.28;73.51;100815.06;5060102;28;20186;-68
2021/10/02 07:50:35;;;;;;;13.60;12.10;;;;;;;15.27;73.67;100824.69;5041455;28;20423;-69
2021/10/02 07:53:01;;;;;;;14.90;13.10;;;;;;;14.85;75.04;100825.91;5059149;28;20711;-69
2021/10/02 07:55:26;;;;;;;15.47;12.67;;;;;;;15.18;74.11;100819.53;5042268;28;20255;-68
2021/10/02 07:57:52;;;;;;;14.87;13.37;;;;;;;15.66;72.26;100821.72;5058901;28;20181;-69
2021/10/02 08:00:19;;;;;;;14.90;13.07;;;;;;;15.17;73.95;100817.78;5058724;28;20221;-70
2021/10/02 08:02:52;;;;;;;15.37;12.97;;;;;;;15.46;73.15;100808.78;5041694;28;20427;-69
2021/10/02 08:05:19;;;;;;;16.53;12.80;;;;;;;15.19;74.04;100805.50;5058662;28;20412;-68
2021/10/02 08:07:46;;;;;;;14.97;12.60;;;;;;;15.28;73.99;100808.06;5058728;28;20643;-69
2021/10/02 08:10:12;;;;;;;17.97;12.80;;;;;;;15.04;74.45;100806.50;5058978;28;20864;-69
2021/10/02 08:12:38;;;;;;;16.60;13.03;;;;;;;15.39;73.42;100805.31;5058761;28;20427;-69
2021/10/02 08:15:04;;;;;;;13.80;12.47;;;;;;;15.23;74.02;100798.47;5058966;28;20936;-69
2021/10/02 08:17:33;;;;;;;16.47;12.90;;;;;;;15.35;73.11;100795.75;5041214;28;20165;-68
2021/10/02 08:20:05;;;;;;;16.50;11.93;;;;;;;15.87;72.27;100793.50;5041211;28;20466;-69
2021/10/02 08:22:31;;;;;;;13.77;12.37;;;;;;;15.36;73.82;100797.50;5058663;28;20474;-69
2021/10/02 08:24:56;;;;;;;15.23;12.77;;;;;;;15.46;73.96;100801.75;5058537;28;20482;-68
2021/10/02 08:27:22;;;;;;;14.10;12.30;;;;;;;15.19;73.96;100807.25;5041709;28;20243;-68
2021/10/02 08:29:49;;;;;;;13.63;12.27;;;;;;;15.25;73.74;100802.84;5041028;28;20435;-70
2021/10/02 08:32:16;;;;;;;13.73;11.73;;;;;;;15.51;73.14;100804.34;5058427;28;20170;-68
2021/10/02 08:34:41;;;;;;;11.93;10.73;;;;;;;15.28;73.70;100804.56;5059075;28;20439;-69
2021/10/02 08:37:06;;;;;;;13.57;12.17;;;;;;;15.51;73.08;100809.59;5058251;28;20700;-69
2021/10/02 08:39:32;;;;;;;12.67;11.33;;;;;;;15.55;72.88;100810.47;5041045;28;20173;-71
2021/10/02 08:41:58;;;;;;;14.20;12.80;;;;;;;15.22;73.64;100807.22;5058634;28;20165;-70
2021/10/02 08:44:23;;;;;;;13.53;11.57;;;;;;;15.24;73.18;100815.97;5058306;28;20472;-69
2021/10/02 08:46:50;;;;;;;12.43;11.23;;;;;;;15.27;73.07;100827.31;5040927;28;20403;-68
2021/10/02 08:49:26;;;;;;;14.10;12.37;;;;;;;14.86;74.94;100825.03;5058449;28;20169;-69
2021/10/02 08:51:52;;;;;;;13.40;12.20;;;;;;;14.87;74.45;100817.13;5025431;28;20532;-72
2021/10/02 08:54:18;;;;;;;12.73;11.43;;;;;;;15.06;73.63;100816.97;5018405;28;20537;-70
2021/10/02 08:56:45;;;;;;;13.23;11.77;;;;;;;15.28;73.12;100802.81;5018608;28;20167;-68
2021/10/02 08:59:13;;;;;;;11.73;10.53;;;;;;;15.34;72.81;100815.00;5018582;28;20664;-69
2021/10/02 09:01:39;;;;;;;11.77;10.57;;;;;;;16.01;70.21;100796.84;5017492;28;20387;-69
2021/10/02 09:04:05;;;;;;;12.13;11.03;;;;;;;16.05;69.99;100785.38;5018280;28;20441;-69
2021/10/02 09:06:33;;;;;;;13.10;11.77;;;;;;;16.39;68.65;100797.25;5018191;28;20388;-69
2021/10/02 09:08:58;;;;;;;12.20;10.07;;;;;;;16.63;67.99;100803.94;5018794;28;20171;-69
2021/10/02 09:11:24;;;;;;;13.43;10.97;;;;;;;16.52;67.99;100816.34;5017156;28;20544;-69
2021/10/02 09:13:49;;;;;;;13.67;10.60;;;;;;;16.83;67.84;100806.22;5017554;28;20209;-69
2021/10/02 09:16:14;;;;;;;13.20;10.97;;;;;;;16.47;68.28;100803.28;5018715;28;20536;-69
2021/10/02 09:18:40;;;;;;;14.80;10.43;;;;;;;16.72;67.40;100803.75;5018210;28;20198;-68
2021/10/02 09:21:06;;;;;;;11.00;10.00;;;;;;;16.94;66.74;100806.09;5017893;28;20533;-71
2021/10/02 09:23:43;;;;;;;13.77;10.00;;;;;;;17.19;66.27;100798.69;5018735;28;20594;-68
2021/10/02 09:26:09;;;;;;;9.97;9.00;;;;;;;16.87;66.86;100800.03;5018342;28;20504;-69
2021/10/02 09:28:45;;;;;;;10.80;9.90;;;;;;;16.86;67.08;100795.69;5018236;28;20396;-69
2021/10/02 09:31:11;;;;;;;10.23;9.23;;;;;;;16.58;68.06;100789.97;5017972;28;20413;-68
2021/10/02 09:33:43;;;;;;;9.50;8.60;;;;;;;18.70;61.37;100781.63;5018013;28;20431;-68
2021/10/02 09:36:18;;;;;;;9.00;8.20;;;;;;;18.69;60.58;100774.63;5018011;28;20199;-68
2021/10/02 09:38:48;;;;;;;9.13;8.33;;;;;;;18.81;59.54;100765.53;5017376;28;20396;-68
2021/10/02 09:41:13;;;;;;;7.90;7.20;;;;;;;19.62;58.06;100767.88;5017847;28;20716;-69
2021/10/02 09:43:48;;;;;;;8.43;7.63;;;;;;;18.43;60.34;100776.09;5017949;28;20430;-69
2021/10/02 09:46:14;;;;;;;8.30;7.50;;;;;;;17.72;63.07;100772.25;5017286;28;20198;-69
2021/10/02 09:48:40;;;;;;;8.33;7.53;;;;;;;17.22;64.39;100771.41;5017944;28;20421;-68
2021/10/02 09:51:08;;;;;;;9.03;8.17;;;;;;;16.79;65.91;100762.41;5029254;28;20308;-69
2021/10/02 09:53:41;;;;;;;8.40;7.60;;;;;;;16.33;66.61;100753.44;5057654;28;20197;-68
2021/10/02 09:56:15;;;;;;;10.00;9.00;;;;;;;17.95;62.62;100752.50;5057725;28;20404;-69
2021/10/02 09:58:41;;;;;;;8.67;7.87;;;;;;;18.27;61.57;100754.44;5057615;28;20457;-69
2021/10/02 10:01:21;;;;;;;8.70;7.90;;;;;;;18.38;60.65;100748.91;5057312;28;20439;-69
2021/10/02 10:03:47;;;;;;;8.20;7.40;;;;;;;18.19;61.03;100743.19;5057862;28;20426;-69
2021/10/02 10:06:21;;;;;;;8.63;7.30;;;;;;;18.59;59.69;100737.00;5059299;28;20503;-68
2021/10/02 10:09:07;;;;;;;7.87;7.13;;;;;;;19.68;56.75;100743.03;5058684;28;20423;-68
2021/10/02 10:11:46;;;;;;;9.10;7.50;;;;;;;18.67;59.79;100745.59;5023507;28;20511;-70
2021/10/02 10:14:22;;;;;;;7.77;7.07;;;;;;;19.02;58.30;100737.72;5058941;28;20462;-69
2021/10/02 10:16:49;;;;;;;9.00;7.57;;;;;;;18.26;60.40;100741.28;5061165;28;20813;-68
2021/10/02 10:19:18;;;;;;;8.63;7.70;;;;;;;18.23;60.41;100747.50;5060998;28;20387;-69
2021/10/02 10:21:43;;;;;;;8.93;7.30;;;;;;;18.64;59.13;100744.81;5060969;28;20681;-69
2021/10/02 10:24:09;;;;;;;7.90;7.20;;;;;;;18.63;59.66;100750.97;5061395;28;20401;-69
2021/10/02 10:26:45;;;;;;;7.87;7.10;;;;;;;18.25;60.48;100750.09;5060840;28;20162;-68
2021/10/02 10:29:10;;;;;;;7.50;6.70;;;;;;;18.04;60.72;100754.94;5044345;28;20453;-69
2021/10/02 10:31:35;;;;;;;7.80;6.37;;;;;;;18.60;59.60;100751.91;5060648;28;20404;-69
2021/10/02 10:34:03;;;;;;;7.53;6.90;;;;;;;18.45;59.84;100739.94;5043535;28;20586;-68
2021/10/02 10:36:28;;;;;;;7.73;6.93;;;;;;;18.31;59.83;100745.53;5043965;28;20183;-68
2021/10/02 10:38:54;;;;;;;7.60;6.23;;;;;;;18.39;59.11;100748.03;5060490;28;20695;-69
2021/10/02 10:41:21;;;;;;;7.37;6.17;;;;;;;18.17;60.36;100747.63;5060465;28;20186;-69
2021/10/02 10:43:48;;;;;;;9.13;6.80;;;;;;;17.66;61.89;100744.22;5060720;28;20542;-69
2021/10/02 10:46:15;;;;;;;8.50;7.60;;;;;;;17.78;61.72;100756.31;5060485;28;20427;-70
2021/10/02 10:48:42;;;;;;;7.47;6.77;;;;;;;18.12;61.02;100752.16;5042968;28;20387;-68
2021/10/02 10:51:12;;;;;;;7.97;7.20;;;;;;;17.78;62.31;100758.94;5060097;28;20486;-68
2021/10/02 10:53:46;;;;;;;7.67;6.90;;;;;;;17.52;62.67;100751.53;5042828;28;20495;-69
2021/10/02 10:56:15;;;;;;;9.20;8.30;;;;;;;18.06;60.90;100745.22;5060397;28;20422;-69
2021/10/02 10:58:40;;;;;;;9.53;6.90;;;;;;;17.82;61.67;100746.59;5059966;28;20442;-69
2021/10/02 11:01:09;;;;;;;8.23;6.17;;;;;;;17.84;61.20;100740.34;5059896;28;20444;-68
2021/10/02 11:03:35;;;;;;;8.90;6.70;;;;;;;18.39;60.27;100745.38;5060560;28;20189;-68
2021/10/02 11:06:01;;;;;;;7.30;6.60;;;;;;;18.12;60.92;100747.72;5059965;28;20694;-68
2021/10/02 11:08:48;;;;;;;7.83;6.43;;;;;;;18.18;59.96;100744.97;5060028;28;20444;-69
2021/10/02 11:11:14;;;;;;;9.67;7.60;;;;;;;18.44;58.87;100743.50;5059784;28;20165;-69
2021/10/02 11:13:45;;;;;;;7.63;6.73;;;;;;;18.61;58.36;100734.31;5059960;28;20460;-68
2021/10/02 11:16:30;;;;;;;7.10;6.40;;;;;;;18.27;59.15;100738.59;5060391;28;20577;-69
2021/10/02 11:18:55;;;;;;;7.17;6.47;;;;;;;18.37;58.79;100733.97;5059903;28;20549;-69
2021/10/02 11:21:21;;;;;;;7.80;6.73;;;;;;;18.43;59.06;100728.56;5059901;28;20782;-69
2021/10/02 11:24:08;;;;;;;6.63;5.70;;;;;;;18.73;57.99;100723.47;5059710;28;20470;-69
2021/10/02 11:26:57;;;;;;;8.03;7.10;;;;;;;18.12;58.87;100729.25;5042542;28;20173;-68
2021/10/02 11:29:27;;;;;;;7.97;5.90;;;;;;;18.22;59.21;100731.69;5049200;28;20443;-69
2021/10/02 11:32:22;;;;;;;9.57;7.10;;;;;;;17.57;60.01;100731.22;5059640;28;20450;-68
2021/10/02 11:35:11;;;;;;;8.70;7.93;;;;;;;17.95;59.33;100737.53;5059589;28;20420;-68
2021/10/02 11:37:43;;;;;;;7.73;7.00;;;;;;;18.83;57.15;100724.97;5059507;28;21034;-68
2021/10/02 11:40:33;;;;;;;10.63;7.70;;;;;;;18.89;57.05;100720.47;5059185;28;20415;-70
2021/10/02 11:43:22;;;;;;;8.00;7.20;;;;;;;18.40;58.00;100733.94;5059440;28;20400;-69
2021/10/02 11:45:50;;;;;;;7.10;6.40;;;;;;;18.22;58.79;100726.41;5059320;28;20417;-69
2021/10/02 11:48:37;;;;;;;8.97;8.17;;;;;;;18.25;57.91;100715.78;5059283;28;20408;-68
2021/10/02 11:51:24;;;;;;;7.17;6.47;;;;;;;19.11;56.41;100699.66;5032971;28;20435;-68
2021/10/02 11:53:54;;;;;;;7.63;6.80;;;;;;;18.61;57.15;100698.22;5019311;28;20516;-69
2021/10/02 11:56:30;;;;;;;8.03;7.23;;;;;;;18.95;56.71;100699.19;5019293;28;20410;-68
2021/10/02 11:58:57;;;;;;;8.77;7.80;;;;;;;19.14;56.33;100696.91;5019393;28;20663;-70
2021/10/02 12:01:28;;;;;;;6.90;6.30;;;;;;;18.57;58.63;100682.50;5019086;28;20444;-69
2021/10/02 12:04:08;;;;;;;7.73;6.87;;;;;;;18.81;57.60;100673.94;5019252;28;20501;-69
2021/10/02 12:06:35;;;;;;;7.43;6.73;;;;;;;18.88;58.21;100673.81;5018618;28;20420;-69
2021/10/02 12:09:01;;;;;;;6.70;6.07;;;;;;;18.86;57.95;100679.09;5019264;28;20410;-69
2021/10/02 12:11:28;;;;;;;8.00;6.13;;;;;;;18.25;59.24;100692.94;5018940;28;20433;-69
2021/10/02 12:13:55;;;;;;;8.73;6.43;;;;;;;17.97;61.36;100680.34;5019134;28;20519;-69
2021/10/02 12:16:31;;;;;;;7.90;7.10;;;;;;;18.57;58.25;100679.84;5019558;28;20402;-69
2021/10/02 12:19:11;;;;;;;8.67;7.20;;;;;;;17.85;61.50;100670.03;5019361;28;20402;-69